長崎空港の過去48時間の天気

長崎空港 (Nagasaki)

現在時刻: 1/23 17:16 JST (1/23 08:16 UTC) 以下の時間は現地時間です。

過去48時間のMETAR気象情報
時間 風向 風速(m/s) 視程 気温(℃) 湿度(%) 気圧(hPa) 天気現象
23 17:00 北北西 9 10km以上 3 65 1020
23 16:00 北北西 9 10km以上 5 56 1020
23 15:00 北西 11 10km以上 5 61 1019
23 14:00 北北西 11 10km以上 6 57 1019
23 13:42 北北西 10 10km以上 7 57 1019
23 13:00 北北西 11 10km以上 6 61 1019
23 12:00 北西 10 10km以上 5 70 1020 弱いしゅう雨
23 11:00 北北西 7 10km以上 6 70 1020 弱いしゅう雨
23 10:00 北西 8 10km以上 8 61 1019
23 09:00 北北西 5 10km以上 7 66 1019
23 08:00 北西 6 10km以上 7 66 1018
23 07:00 北西 7 10km以上 6 70 1017
23 06:10 西北西 5 10km以上 8 66 1017
22 21:00 南南東 2 10km以上 5 93 1016
22 20:00 南南東 3 10km以上 6 93 1015
22 19:00 北東 2 10km以上 5 87 1015
22 18:00 北北西 3 10km以上 7 81 1014
22 17:00 5 10km以上 9 71 1013
22 16:00 北北西 4 10km以上 9 71 1013
22 15:00 北西 4 10km以上 8 81 1012
22 14:00 北北西 5 10km以上 7 87 1012
22 13:00 7 10km以上 7 87 1011
22 12:24 5 10km以上 7 81 1012
22 12:00 東北東 3 10km以上 8 81 1012
22 11:46 北北東 3 10km以上 7 81 1012
22 11:18 北西 5 10km以上 7 87 1013
22 11:00 南西 3 10km以上 7 87 1013
22 10:00 東南東 2 10km以上 5 93 1014 弱い雨
22 09:43 東北東 2 10km以上 5 93 1014 弱い雨
22 09:00 5 8,000m 5 93 1014 弱いしゅう雨
22 08:44 6 7,000m 5 93 1014 弱いしゅう雨
22 08:32 6 6,000m 5 93 1014 しゅう雨
22 08:00 5 5,000m 5 87 1014 弱いしゅう雨 もや
22 07:00 6 5,000m 6 87 1014 弱いしゅう雨 もや
22 06:10 北北西 2 5,000m 6 93 1014 弱いしゅう雨 もや
RJFU 230800Z 33017KT 9999 FEW030 BKN040 03/M03 Q1020
RJFU 230700Z 33018KT 9999 SCT030 BKN040 05/M03 Q1020
RJFU 230600Z 32021KT 9999 SCT030 BKN040 05/M02 Q1019
RJFU 230500Z 33021KT 9999 FEW030 SCT035 BKN040 06/M02 Q1019
RJFU 230442Z 33019G29KT 9999 FEW030 BKN035 07/M01 Q1019 RMK 1CU030 6CU035 A3010
RJFU 230400Z 33021KT 9999 FEW025 BKN035 06/M01 Q1019
RJFU 230300Z 32019KT 9999 -SHRA FEW020 SCT025 BKN030 05/00 Q1020
RJFU 230200Z 34014KT 9999 -SHRA SCT030 BKN035 BKN040 06/01 Q1020
RJFU 230100Z 31015KT 9999 FEW030 BKN040 BKN050 08/01 Q1019
RJFU 230000Z 34010KT 9999 FEW030 BKN040 07/01 Q1019
RJFU 222300Z 31011KT 9999 SCT030 BKN040 07/01 Q1018
RJFU 222200Z 32014KT 9999 FEW030 SCT040 06/01 Q1017
RJFU 222110Z 30010KT 9999 FEW030 08/02 Q1017 RMK 2CU030 A3003
RJFU 221200Z 15004KT 9999 FEW030 05/04 Q1016
RJFU 221100Z 15006KT 9999 FEW030 06/05 Q1015
RJFU 221000Z 04004KT 9999 FEW030 05/03 Q1015
RJFU 220900Z 34005KT 9999 FEW020 07/04 Q1014
RJFU 220800Z 35010KT 9999 FEW030 09/04 Q1013
RJFU 220700Z 34007KT 9999 FEW020 SCT030 BKN070 09/04 Q1013
RJFU 220600Z 32007KT 9999 FEW020 08/05 Q1012
RJFU 220500Z 33010KT 9999 FEW010 SCT025 BKN040 07/05 Q1012
RJFU 220400Z 01013KT 9999 FEW010 SCT015 BKN035 07/05 Q1011
RJFU 220324Z 35010KT 9999 SCT010 BKN020 BKN040 07/04 Q1012 RMK 3CU010 5CU020 7CU040 A2989
RJFU 220300Z 07006KT 9999 FEW008 SCT010 BKN050 08/05 Q1012
RJFU 220246Z 02005G16KT 350V070 9999 FEW008 BKN010 BKN040 07/04 Q1012 RMK 1ST008 5CU010 7CU040 A2989 P/FR
RJFU 220218Z 32010KT 9999 FEW008 BKN015 BKN030 07/05 Q1013 RMK 1ST008 5CU015 7CU030 A2992
RJFU 220200Z 22006KT 180V250 9999 FEW006 BKN015 BKN120 07/05 Q1013
RJFU 220100Z 12003KT 100V170 9999 -RA FEW005 SCT030 BKN045 05/04 Q1014
RJFU 220043Z 06004KT 010V120 9999 -RA FEW005 SCT030 BKN045 05/04 Q1014 RMK 1ST005 3CU030 7SC045 A2995
RJFU 220000Z 36010KT 8000 -SHRA FEW008 SCT025 BKN035 05/04 Q1014
RJFU 212344Z 35011KT 7000 -SHRA FEW007 SCT025 BKN035 05/04 Q1014 RMK 1ST007 3CU025 7CU035 A2997
RJFU 212332Z 35012KT 6000 SHRA FEW007 SCT020 BKN030 05/04 Q1014 RMK 1ST007 3CU020 7CU030 A2997
RJFU 212300Z 35010KT 5000 -SHRA BR FEW010 BKN020 BKN040 05/03 Q1014
RJFU 212200Z 01012KT 5000 -SHRA BR FEW015 BKN025 BKN030 06/04 Q1014
RJFU 212110Z 34004KT 310V010 5000 -SHRA BR SCT020 BKN025 BKN030 06/05 Q1014 RMK 3CU020 6CU025 7CU030 A2995